sensor_id;sensor_type;location;lat;lon;timestamp;temperature;humidity
7708;DHT22;3896;48.758;8.888;2022-10-16T00:01:26;16.10;99.90
7708;DHT22;3896;48.758;8.888;2022-10-16T00:03:52;16.10;99.90
7708;DHT22;3896;48.758;8.888;2022-10-16T00:06:20;16.10;99.90
7708;DHT22;3896;48.758;8.888;2022-10-16T00:08:46;16.10;99.90
7708;DHT22;3896;48.758;8.888;2022-10-16T00:11:24;16.10;99.90
7708;DHT22;3896;48.758;8.888;2022-10-16T00:13:53;16.00;99.90
7708;DHT22;3896;48.758;8.888;2022-10-16T00:16:19;16.00;99.90
7708;DHT22;3896;48.758;8.888;2022-10-16T00:18:46;16.00;99.90
7708;DHT22;3896;48.758;8.888;2022-10-16T00:21:15;16.00;99.90
7708;DHT22;3896;48.758;8.888;2022-10-16T00:23:41;15.90;99.90
7708;DHT22;3896;48.758;8.888;2022-10-16T00:26:09;15.90;99.90
7708;DHT22;3896;48.758;8.888;2022-10-16T00:28:35;15.90;99.90
7708;DHT22;3896;48.758;8.888;2022-10-16T00:31:06;15.90;99.90
7708;DHT22;3896;48.758;8.888;2022-10-16T00:33:32;15.90;99.90
7708;DHT22;3896;48.758;8.888;2022-10-16T00:35:59;15.80;99.90
7708;DHT22;3896;48.758;8.888;2022-10-16T00:38:25;15.80;99.90
7708;DHT22;3896;48.758;8.888;2022-10-16T00:40:50;15.80;99.90
7708;DHT22;3896;48.758;8.888;2022-10-16T00:43:55;15.80;99.90
7708;DHT22;3896;48.758;8.888;2022-10-16T00:48:54;15.70;99.90
7708;DHT22;3896;48.758;8.888;2022-10-16T00:51:24;15.70;99.90
7708;DHT22;3896;48.758;8.888;2022-10-16T00:53:51;15.70;99.90
7708;DHT22;3896;48.758;8.888;2022-10-16T00:56:17;15.70;99.90
7708;DHT22;3896;48.758;8.888;2022-10-16T00:58:43;15.70;99.90
7708;DHT22;3896;48.758;8.888;2022-10-16T01:01:08;15.70;99.90
7708;DHT22;3896;48.758;8.888;2022-10-16T01:03:36;15.70;99.90
7708;DHT22;3896;48.758;8.888;2022-10-16T01:08:44;15.60;99.90
7708;DHT22;3896;48.758;8.888;2022-10-16T01:11:30;15.60;99.90
7708;DHT22;3896;48.758;8.888;2022-10-16T01:14:02;15.50;99.90
7708;DHT22;3896;48.758;8.888;2022-10-16T01:16:34;15.60;99.90
7708;DHT22;3896;48.758;8.888;2022-10-16T01:19:16;15.50;99.90
7708;DHT22;3896;48.758;8.888;2022-10-16T01:21:47;15.50;99.90
7708;DHT22;3896;48.758;8.888;2022-10-16T01:24:33;15.50;99.90
7708;DHT22;3896;48.758;8.888;2022-10-16T01:29:39;15.50;99.90
7708;DHT22;3896;48.758;8.888;2022-10-16T01:32:19;15.50;99.90
7708;DHT22;3896;48.758;8.888;2022-10-16T01:37:37;15.50;99.90
7708;DHT22;3896;48.758;8.888;2022-10-16T01:40:09;15.50;99.90
7708;DHT22;3896;48.758;8.888;2022-10-16T01:42:41;15.50;99.90
7708;DHT22;3896;48.758;8.888;2022-10-16T01:45:10;15.50;99.90
7708;DHT22;3896;48.758;8.888;2022-10-16T01:47:39;15.50;99.90
7708;DHT22;3896;48.758;8.888;2022-10-16T01:50:08;15.50;99.90
7708;DHT22;3896;48.758;8.888;2022-10-16T01:52:39;15.50;99.90
7708;DHT22;3896;48.758;8.888;2022-10-16T01:55:08;15.50;99.90
7708;DHT22;3896;48.758;8.888;2022-10-16T01:57:37;15.50;99.90
7708;DHT22;3896;48.758;8.888;2022-10-16T02:00:09;15.50;99.90
7708;DHT22;3896;48.758;8.888;2022-10-16T02:02:36;15.50;99.90
7708;DHT22;3896;48.758;8.888;2022-10-16T02:05:08;15.50;99.90
7708;DHT22;3896;48.758;8.888;2022-10-16T02:07:36;15.50;99.90
7708;DHT22;3896;48.758;8.888;2022-10-16T02:10:02;15.50;99.90
7708;DHT22;3896;48.758;8.888;2022-10-16T02:12:31;15.50;99.90
7708;DHT22;3896;48.758;8.888;2022-10-16T02:14:58;15.50;99.90
7708;DHT22;3896;48.758;8.888;2022-10-16T02:17:24;15.50;99.90
7708;DHT22;3896;48.758;8.888;2022-10-16T02:19:53;15.60;99.90
7708;DHT22;3896;48.758;8.888;2022-10-16T02:22:34;15.60;99.90
7708;DHT22;3896;48.758;8.888;2022-10-16T02:25:12;15.50;99.90
7708;DHT22;3896;48.758;8.888;2022-10-16T02:27:45;15.50;99.90
7708;DHT22;3896;48.758;8.888;2022-10-16T02:32:47;15.50;99.90
7708;DHT22;3896;48.758;8.888;2022-10-16T02:35:16;15.50;99.90
7708;DHT22;3896;48.758;8.888;2022-10-16T02:37:42;15.50;99.90
7708;DHT22;3896;48.758;8.888;2022-10-16T02:40:08;15.60;99.90
7708;DHT22;3896;48.758;8.888;2022-10-16T02:42:38;15.60;99.90
7708;DHT22;3896;48.758;8.888;2022-10-16T02:45:09;15.50;99.90
7708;DHT22;3896;48.758;8.888;2022-10-16T02:47:35;15.50;99.90
7708;DHT22;3896;48.758;8.888;2022-10-16T02:50:00;15.60;99.90
7708;DHT22;3896;48.758;8.888;2022-10-16T02:52:26;15.60;99.90
7708;DHT22;3896;48.758;8.888;2022-10-16T02:54:52;15.60;99.90
7708;DHT22;3896;48.758;8.888;2022-10-16T02:57:18;15.60;99.90
7708;DHT22;3896;48.758;8.888;2022-10-16T02:59:44;15.50;99.90
7708;DHT22;3896;48.758;8.888;2022-10-16T03:02:10;15.50;99.90
7708;DHT22;3896;48.758;8.888;2022-10-16T03:04:36;15.60;99.90
7708;DHT22;3896;48.758;8.888;2022-10-16T03:07:02;15.50;99.90
7708;DHT22;3896;48.758;8.888;2022-10-16T03:09:27;15.50;99.90
7708;DHT22;3896;48.758;8.888;2022-10-16T03:11:53;15.50;99.90
7708;DHT22;3896;48.758;8.888;2022-10-16T03:14:19;15.50;99.90
7708;DHT22;3896;48.758;8.888;2022-10-16T03:16:44;15.50;99.90
7708;DHT22;3896;48.758;8.888;2022-10-16T03:19:10;15.50;99.90
7708;DHT22;3896;48.758;8.888;2022-10-16T03:21:36;15.50;99.90
7708;DHT22;3896;48.758;8.888;2022-10-16T03:24:01;15.50;99.90
7708;DHT22;3896;48.758;8.888;2022-10-16T03:26:27;15.50;99.90
7708;DHT22;3896;48.758;8.888;2022-10-16T03:28:52;15.50;99.90
7708;DHT22;3896;48.758;8.888;2022-10-16T03:31:18;15.50;99.90
7708;DHT22;3896;48.758;8.888;2022-10-16T03:33:44;15.40;99.90
7708;DHT22;3896;48.758;8.888;2022-10-16T03:36:09;15.40;99.90
7708;DHT22;3896;48.758;8.888;2022-10-16T03:38:35;15.40;99.90
7708;DHT22;3896;48.758;8.888;2022-10-16T03:41:00;15.40;99.90
7708;DHT22;3896;48.758;8.888;2022-10-16T03:43:26;15.40;99.90
7708;DHT22;3896;48.758;8.888;2022-10-16T03:45:52;15.40;99.90
7708;DHT22;3896;48.758;8.888;2022-10-16T03:48:18;15.40;99.90
7708;DHT22;3896;48.758;8.888;2022-10-16T03:50:44;15.40;99.90
7708;DHT22;3896;48.758;8.888;2022-10-16T03:53:10;15.40;99.90
7708;DHT22;3896;48.758;8.888;2022-10-16T03:55:35;15.30;99.90
7708;DHT22;3896;48.758;8.888;2022-10-16T03:58:01;15.30;99.90
7708;DHT22;3896;48.758;8.888;2022-10-16T04:00:27;15.30;99.90
7708;DHT22;3896;48.758;8.888;2022-10-16T04:02:52;15.30;99.90
7708;DHT22;3896;48.758;8.888;2022-10-16T04:05:18;15.30;99.90
7708;DHT22;3896;48.758;8.888;2022-10-16T04:07:44;15.30;99.90
7708;DHT22;3896;48.758;8.888;2022-10-16T04:10:10;15.20;99.90
7708;DHT22;3896;48.758;8.888;2022-10-16T04:12:35;15.20;99.90
7708;DHT22;3896;48.758;8.888;2022-10-16T04:15:01;15.30;99.90
7708;DHT22;3896;48.758;8.888;2022-10-16T04:17:27;15.30;99.90
7708;DHT22;3896;48.758;8.888;2022-10-16T04:19:52;15.30;99.90
7708;DHT22;3896;48.758;8.888;2022-10-16T04:22:18;15.20;99.90
7708;DHT22;3896;48.758;8.888;2022-10-16T04:24:44;15.30;99.90
7708;DHT22;3896;48.758;8.888;2022-10-16T04:27:09;15.20;99.90
7708;DHT22;3896;48.758;8.888;2022-10-16T04:29:35;15.20;99.90
7708;DHT22;3896;48.758;8.888;2022-10-16T04:32:01;15.20;99.90
7708;DHT22;3896;48.758;8.888;2022-10-16T04:34:26;15.20;99.90
7708;DHT22;3896;48.758;8.888;2022-10-16T04:36:52;15.20;99.90
7708;DHT22;3896;48.758;8.888;2022-10-16T04:39:17;15.20;99.90
7708;DHT22;3896;48.758;8.888;2022-10-16T04:41:43;15.20;99.90
7708;DHT22;3896;48.758;8.888;2022-10-16T04:44:09;15.20;99.90
7708;DHT22;3896;48.758;8.888;2022-10-16T04:46:34;15.20;99.90
7708;DHT22;3896;48.758;8.888;2022-10-16T04:49:00;15.20;99.90
7708;DHT22;3896;48.758;8.888;2022-10-16T04:51:26;15.20;99.90
7708;DHT22;3896;48.758;8.888;2022-10-16T04:53:53;15.20;99.90
7708;DHT22;3896;48.758;8.888;2022-10-16T04:56:19;15.20;99.90
7708;DHT22;3896;48.758;8.888;2022-10-16T04:58:46;15.20;99.90
7708;DHT22;3896;48.758;8.888;2022-10-16T05:01:12;15.20;99.90
7708;DHT22;3896;48.758;8.888;2022-10-16T05:03:37;15.20;99.90
7708;DHT22;3896;48.758;8.888;2022-10-16T05:06:05;15.20;99.90
7708;DHT22;3896;48.758;8.888;2022-10-16T05:08:31;15.20;99.90
7708;DHT22;3896;48.758;8.888;2022-10-16T05:10:56;15.20;99.90
7708;DHT22;3896;48.758;8.888;2022-10-16T05:13:22;15.20;99.90
7708;DHT22;3896;48.758;8.888;2022-10-16T05:15:48;15.20;99.90
7708;DHT22;3896;48.758;8.888;2022-10-16T05:18:14;15.20;99.90
7708;DHT22;3896;48.758;8.888;2022-10-16T05:20:41;15.20;99.90
7708;DHT22;3896;48.758;8.888;2022-10-16T05:23:07;15.20;99.90
7708;DHT22;3896;48.758;8.888;2022-10-16T05:25:35;15.20;99.90
7708;DHT22;3896;48.758;8.888;2022-10-16T05:28:01;15.20;99.90
7708;DHT22;3896;48.758;8.888;2022-10-16T05:30:27;15.20;99.90
7708;DHT22;3896;48.758;8.888;2022-10-16T05:32:53;15.20;99.90
7708;DHT22;3896;48.758;8.888;2022-10-16T05:35:19;15.20;99.90
7708;DHT22;3896;48.758;8.888;2022-10-16T05:37:45;15.20;99.90
7708;DHT22;3896;48.758;8.888;2022-10-16T05:40:12;15.20;99.90
7708;DHT22;3896;48.758;8.888;2022-10-16T05:42:38;15.20;99.90
7708;DHT22;3896;48.758;8.888;2022-10-16T05:45:06;15.20;99.90
7708;DHT22;3896;48.758;8.888;2022-10-16T05:47:32;15.20;99.90
7708;DHT22;3896;48.758;8.888;2022-10-16T05:49:57;15.20;99.90
7708;DHT22;3896;48.758;8.888;2022-10-16T05:52:23;15.20;99.90
7708;DHT22;3896;48.758;8.888;2022-10-16T05:54:49;15.20;99.90
7708;DHT22;3896;48.758;8.888;2022-10-16T05:57:14;15.20;99.90
7708;DHT22;3896;48.758;8.888;2022-10-16T05:59:40;15.20;99.90
7708;DHT22;3896;48.758;8.888;2022-10-16T06:02:07;15.20;99.90
7708;DHT22;3896;48.758;8.888;2022-10-16T06:04:33;15.20;99.90
7708;DHT22;3896;48.758;8.888;2022-10-16T06:06:59;15.10;99.90
7708;DHT22;3896;48.758;8.888;2022-10-16T06:09:27;15.20;99.90
7708;DHT22;3896;48.758;8.888;2022-10-16T06:11:53;15.10;99.90
7708;DHT22;3896;48.758;8.888;2022-10-16T06:14:19;15.10;99.90
7708;DHT22;3896;48.758;8.888;2022-10-16T06:16:44;15.10;99.90
7708;DHT22;3896;48.758;8.888;2022-10-16T06:19:10;15.20;99.90
7708;DHT22;3896;48.758;8.888;2022-10-16T06:21:35;15.10;99.90
7708;DHT22;3896;48.758;8.888;2022-10-16T06:24:01;15.20;99.90
7708;DHT22;3896;48.758;8.888;2022-10-16T06:26:29;15.20;99.90
7708;DHT22;3896;48.758;8.888;2022-10-16T06:28:55;15.20;99.90
7708;DHT22;3896;48.758;8.888;2022-10-16T06:31:22;15.20;99.90
7708;DHT22;3896;48.758;8.888;2022-10-16T06:33:50;15.20;99.90
7708;DHT22;3896;48.758;8.888;2022-10-16T06:36:17;15.20;99.90
7708;DHT22;3896;48.758;8.888;2022-10-16T06:38:43;15.20;99.90
7708;DHT22;3896;48.758;8.888;2022-10-16T06:41:14;15.20;99.90
7708;DHT22;3896;48.758;8.888;2022-10-16T06:43:40;15.20;99.90
7708;DHT22;3896;48.758;8.888;2022-10-16T06:46:09;15.20;99.90
7708;DHT22;3896;48.758;8.888;2022-10-16T06:48:35;15.30;99.90
7708;DHT22;3896;48.758;8.888;2022-10-16T06:51:02;15.30;99.90
7708;DHT22;3896;48.758;8.888;2022-10-16T06:53:31;15.30;99.90
7708;DHT22;3896;48.758;8.888;2022-10-16T06:55:57;15.30;99.90
7708;DHT22;3896;48.758;8.888;2022-10-16T06:58:23;15.40;99.90
7708;DHT22;3896;48.758;8.888;2022-10-16T07:00:55;15.40;99.90
7708;DHT22;3896;48.758;8.888;2022-10-16T07:03:21;15.40;99.90
7708;DHT22;3896;48.758;8.888;2022-10-16T07:05:47;15.40;99.90
7708;DHT22;3896;48.758;8.888;2022-10-16T07:08:12;15.40;99.90
7708;DHT22;3896;48.758;8.888;2022-10-16T07:10:38;15.50;99.90
7708;DHT22;3896;48.758;8.888;2022-10-16T07:13:03;15.50;99.90
7708;DHT22;3896;48.758;8.888;2022-10-16T07:15:29;15.50;99.90
7708;DHT22;3896;48.758;8.888;2022-10-16T07:17:55;15.60;99.90
7708;DHT22;3896;48.758;8.888;2022-10-16T07:20:22;15.60;99.90
7708;DHT22;3896;48.758;8.888;2022-10-16T07:22:47;15.60;99.90
7708;DHT22;3896;48.758;8.888;2022-10-16T07:25:13;15.60;99.90
7708;DHT22;3896;48.758;8.888;2022-10-16T07:27:39;15.60;99.90
7708;DHT22;3896;48.758;8.888;2022-10-16T07:30:05;15.70;99.90
7708;DHT22;3896;48.758;8.888;2022-10-16T07:32:31;15.70;99.90
7708;DHT22;3896;48.758;8.888;2022-10-16T07:34:57;15.70;99.90
7708;DHT22;3896;48.758;8.888;2022-10-16T07:37:23;15.70;99.90
7708;DHT22;3896;48.758;8.888;2022-10-16T07:39:48;15.80;99.90
7708;DHT22;3896;48.758;8.888;2022-10-16T07:42:14;15.80;99.90
7708;DHT22;3896;48.758;8.888;2022-10-16T07:44:40;15.90;99.90
7708;DHT22;3896;48.758;8.888;2022-10-16T07:47:06;15.90;99.90
7708;DHT22;3896;48.758;8.888;2022-10-16T07:49:32;15.90;99.90
7708;DHT22;3896;48.758;8.888;2022-10-16T07:51:58;16.00;99.90
7708;DHT22;3896;48.758;8.888;2022-10-16T07:54:23;16.00;99.90
7708;DHT22;3896;48.758;8.888;2022-10-16T07:56:49;16.00;99.90
7708;DHT22;3896;48.758;8.888;2022-10-16T07:59:14;16.10;99.90
7708;DHT22;3896;48.758;8.888;2022-10-16T08:01:40;16.10;99.90
7708;DHT22;3896;48.758;8.888;2022-10-16T08:04:08;16.20;99.90
7708;DHT22;3896;48.758;8.888;2022-10-16T08:06:38;16.20;99.90
7708;DHT22;3896;48.758;8.888;2022-10-16T08:09:05;16.30;99.90
7708;DHT22;3896;48.758;8.888;2022-10-16T08:11:31;16.30;99.90
7708;DHT22;3896;48.758;8.888;2022-10-16T08:13:57;16.40;99.90
7708;DHT22;3896;48.758;8.888;2022-10-16T08:16:22;16.50;99.90
7708;DHT22;3896;48.758;8.888;2022-10-16T08:18:48;16.50;99.90
7708;DHT22;3896;48.758;8.888;2022-10-16T08:21:18;16.60;99.90
7708;DHT22;3896;48.758;8.888;2022-10-16T08:23:44;16.60;99.90
7708;DHT22;3896;48.758;8.888;2022-10-16T08:26:10;16.70;99.90
7708;DHT22;3896;48.758;8.888;2022-10-16T08:28:37;16.80;99.90
7708;DHT22;3896;48.758;8.888;2022-10-16T08:31:12;16.80;99.90
7708;DHT22;3896;48.758;8.888;2022-10-16T08:33:41;16.90;99.90
7708;DHT22;3896;48.758;8.888;2022-10-16T08:36:09;16.90;99.90
7708;DHT22;3896;48.758;8.888;2022-10-16T08:38:34;17.00;99.90
7708;DHT22;3896;48.758;8.888;2022-10-16T08:49:21;17.20;99.90
7708;DHT22;3896;48.758;8.888;2022-10-16T08:51:49;17.20;99.90
7708;DHT22;3896;48.758;8.888;2022-10-16T08:54:37;17.30;99.90
7708;DHT22;3896;48.758;8.888;2022-10-16T08:57:19;17.30;99.90
7708;DHT22;3896;48.758;8.888;2022-10-16T08:59:45;17.40;99.90
7708;DHT22;3896;48.758;8.888;2022-10-16T09:02:42;17.50;99.90
7708;DHT22;3896;48.758;8.888;2022-10-16T09:10:58;17.60;99.90
7708;DHT22;3896;48.758;8.888;2022-10-16T09:13:46;17.70;99.90
7708;DHT22;3896;48.758;8.888;2022-10-16T09:16:22;17.80;99.90
7708;DHT22;3896;48.758;8.888;2022-10-16T09:21:40;17.90;99.90
7708;DHT22;3896;48.758;8.888;2022-10-16T09:24:18;18.00;99.90
7708;DHT22;3896;48.758;8.888;2022-10-16T09:26:45;18.00;99.90
7708;DHT22;3896;48.758;8.888;2022-10-16T09:29:18;18.10;99.90
7708;DHT22;3896;48.758;8.888;2022-10-16T09:31:47;18.20;99.90
7708;DHT22;3896;48.758;8.888;2022-10-16T09:34:30;18.20;99.90
7708;DHT22;3896;48.758;8.888;2022-10-16T09:36:57;18.30;99.90
7708;DHT22;3896;48.758;8.888;2022-10-16T09:39:24;18.40;99.90
7708;DHT22;3896;48.758;8.888;2022-10-16T09:41:50;18.40;99.90
7708;DHT22;3896;48.758;8.888;2022-10-16T09:44:29;18.50;99.90
7708;DHT22;3896;48.758;8.888;2022-10-16T09:47:03;18.60;99.90
7708;DHT22;3896;48.758;8.888;2022-10-16T09:49:29;18.70;99.90
7708;DHT22;3896;48.758;8.888;2022-10-16T09:52:14;18.70;99.90
7708;DHT22;3896;48.758;8.888;2022-10-16T09:54:57;18.80;99.90
7708;DHT22;3896;48.758;8.888;2022-10-16T09:57:24;18.90;99.90
7708;DHT22;3896;48.758;8.888;2022-10-16T09:59:53;19.00;99.90
7708;DHT22;3896;48.758;8.888;2022-10-16T10:02:39;19.10;99.90
7708;DHT22;3896;48.758;8.888;2022-10-16T10:05:16;19.20;99.90
7708;DHT22;3896;48.758;8.888;2022-10-16T10:07:43;19.30;99.90
7708;DHT22;3896;48.758;8.888;2022-10-16T10:10:23;19.40;99.90
7708;DHT22;3896;48.758;8.888;2022-10-16T10:12:49;19.50;99.90
7708;DHT22;3896;48.758;8.888;2022-10-16T10:15:15;19.60;99.90
7708;DHT22;3896;48.758;8.888;2022-10-16T10:17:49;19.70;99.90
7708;DHT22;3896;48.758;8.888;2022-10-16T10:20:23;19.80;99.90
7708;DHT22;3896;48.758;8.888;2022-10-16T10:22:49;19.90;99.90
7708;DHT22;3896;48.758;8.888;2022-10-16T10:28:25;20.10;99.90
7708;DHT22;3896;48.758;8.888;2022-10-16T10:36:40;20.30;99.90
7708;DHT22;3896;48.758;8.888;2022-10-16T10:47:21;20.90;99.90
7708;DHT22;3896;48.758;8.888;2022-10-16T11:01:30;21.50;99.90
7708;DHT22;3896;48.758;8.888;2022-10-16T11:04:24;21.70;99.90
7708;DHT22;3896;48.758;8.888;2022-10-16T11:06:59;21.80;99.90
7708;DHT22;3896;48.758;8.888;2022-10-16T11:09:36;21.90;99.40
7708;DHT22;3896;48.758;8.888;2022-10-16T11:15:02;22.10;99.20
7708;DHT22;3896;48.758;8.888;2022-10-16T11:17:32;22.20;98.00
7708;DHT22;3896;48.758;8.888;2022-10-16T11:25:47;22.50;96.80
7708;DHT22;3896;48.758;8.888;2022-10-16T11:28:35;22.60;96.80
7708;DHT22;3896;48.758;8.888;2022-10-16T11:31:27;22.70;96.10
7708;DHT22;3896;48.758;8.888;2022-10-16T11:39:36;23.00;95.00
7708;DHT22;3896;48.758;8.888;2022-10-16T11:42:22;23.10;93.60
7708;DHT22;3896;48.758;8.888;2022-10-16T11:48:23;23.20;92.00
7708;DHT22;3896;48.758;8.888;2022-10-16T11:50:57;23.30;91.90
7708;DHT22;3896;48.758;8.888;2022-10-16T11:56:18;23.40;90.80
7708;DHT22;3896;48.758;8.888;2022-10-16T11:58:57;23.50;90.10
7708;DHT22;3896;48.758;8.888;2022-10-16T12:08:53;23.70;89.20
7708;DHT22;3896;48.758;8.888;2022-10-16T12:13:51;23.70;88.90
7708;DHT22;3896;48.758;8.888;2022-10-16T12:16:21;23.80;88.60
7708;DHT22;3896;48.758;8.888;2022-10-16T12:18:48;23.80;87.80
7708;DHT22;3896;48.758;8.888;2022-10-16T12:21:16;23.90;88.20
7708;DHT22;3896;48.758;8.888;2022-10-16T12:23:52;24.00;88.30
7708;DHT22;3896;48.758;8.888;2022-10-16T12:26:45;24.00;88.20
7708;DHT22;3896;48.758;8.888;2022-10-16T12:29:28;24.10;88.20
7708;DHT22;3896;48.758;8.888;2022-10-16T12:31:55;24.20;85.80
7708;DHT22;3896;48.758;8.888;2022-10-16T12:34:26;24.30;84.20
7708;DHT22;3896;48.758;8.888;2022-10-16T12:36:53;24.40;85.40
7708;DHT22;3896;48.758;8.888;2022-10-16T12:39:22;24.50;84.80
7708;DHT22;3896;48.758;8.888;2022-10-16T12:42:01;24.50;85.60
7708;DHT22;3896;48.758;8.888;2022-10-16T12:44:32;24.50;86.10
7708;DHT22;3896;48.758;8.888;2022-10-16T12:46:59;24.60;85.40
7708;DHT22;3896;48.758;8.888;2022-10-16T12:49:36;24.60;83.80
7708;DHT22;3896;48.758;8.888;2022-10-16T12:52:03;24.70;83.20
7708;DHT22;3896;48.758;8.888;2022-10-16T12:54:31;24.70;83.50
7708;DHT22;3896;48.758;8.888;2022-10-16T13:00:18;24.80;81.90
7708;DHT22;3896;48.758;8.888;2022-10-16T13:03:26;24.80;82.70
7708;DHT22;3896;48.758;8.888;2022-10-16T13:16:52;25.20;78.60
7708;DHT22;3896;48.758;8.888;2022-10-16T13:22:21;25.20;77.80
7708;DHT22;3896;48.758;8.888;2022-10-16T13:27:46;25.30;75.40
7708;DHT22;3896;48.758;8.888;2022-10-16T13:30:26;25.40;74.50
7708;DHT22;3896;48.758;8.888;2022-10-16T13:33:02;25.40;73.20
7708;DHT22;3896;48.758;8.888;2022-10-16T13:35:32;25.50;73.00
7708;DHT22;3896;48.758;8.888;2022-10-16T13:38:25;25.50;72.60
7708;DHT22;3896;48.758;8.888;2022-10-16T13:40:58;25.60;75.00
7708;DHT22;3896;48.758;8.888;2022-10-16T13:43:38;25.70;73.00
7708;DHT22;3896;48.758;8.888;2022-10-16T13:46:16;25.80;73.60
7708;DHT22;3896;48.758;8.888;2022-10-16T13:48:42;25.80;73.00
7708;DHT22;3896;48.758;8.888;2022-10-16T13:51:15;25.80;73.30
7708;DHT22;3896;48.758;8.888;2022-10-16T13:53:42;25.90;74.60
7708;DHT22;3896;48.758;8.888;2022-10-16T13:56:12;25.90;73.50
7708;DHT22;3896;48.758;8.888;2022-10-16T13:58:38;25.90;73.30
7708;DHT22;3896;48.758;8.888;2022-10-16T14:01:15;25.90;73.80
7708;DHT22;3896;48.758;8.888;2022-10-16T14:03:42;25.90;75.80
7708;DHT22;3896;48.758;8.888;2022-10-16T14:06:13;25.90;75.70
7708;DHT22;3896;48.758;8.888;2022-10-16T14:08:43;26.00;74.60
7708;DHT22;3896;48.758;8.888;2022-10-16T14:11:10;26.00;74.90
7708;DHT22;3896;48.758;8.888;2022-10-16T14:13:54;26.10;74.30
7708;DHT22;3896;48.758;8.888;2022-10-16T14:16:26;26.10;74.60
7708;DHT22;3896;48.758;8.888;2022-10-16T14:19:01;26.10;74.60
7708;DHT22;3896;48.758;8.888;2022-10-16T14:21:27;26.10;74.20
7708;DHT22;3896;48.758;8.888;2022-10-16T14:23:53;26.20;74.40
7708;DHT22;3896;48.758;8.888;2022-10-16T14:26:23;26.20;73.50
7708;DHT22;3896;48.758;8.888;2022-10-16T14:29:14;26.20;73.90
7708;DHT22;3896;48.758;8.888;2022-10-16T14:31:40;26.20;74.00
7708;DHT22;3896;48.758;8.888;2022-10-16T14:34:28;26.20;74.10
7708;DHT22;3896;48.758;8.888;2022-10-16T14:36:55;26.20;74.90
7708;DHT22;3896;48.758;8.888;2022-10-16T14:39:22;26.20;75.40
7708;DHT22;3896;48.758;8.888;2022-10-16T14:41:50;26.20;75.60
7708;DHT22;3896;48.758;8.888;2022-10-16T14:44:26;26.20;75.70
7708;DHT22;3896;48.758;8.888;2022-10-16T14:46:52;26.10;75.60
7708;DHT22;3896;48.758;8.888;2022-10-16T14:49:19;26.10;75.50
7708;DHT22;3896;48.758;8.888;2022-10-16T14:51:46;26.10;76.00
7708;DHT22;3896;48.758;8.888;2022-10-16T14:54:13;26.10;76.00
7708;DHT22;3896;48.758;8.888;2022-10-16T14:56:56;26.00;76.00
7708;DHT22;3896;48.758;8.888;2022-10-16T15:01:53;25.90;76.50
7708;DHT22;3896;48.758;8.888;2022-10-16T15:04:19;25.90;76.40
7708;DHT22;3896;48.758;8.888;2022-10-16T15:06:45;25.90;76.30
7708;DHT22;3896;48.758;8.888;2022-10-16T15:09:11;25.80;76.40
7708;DHT22;3896;48.758;8.888;2022-10-16T15:11:36;25.80;76.70
7708;DHT22;3896;48.758;8.888;2022-10-16T15:14:02;25.80;77.40
7708;DHT22;3896;48.758;8.888;2022-10-16T15:16:29;25.70;78.20
7708;DHT22;3896;48.758;8.888;2022-10-16T15:18:55;25.60;78.50
7708;DHT22;3896;48.758;8.888;2022-10-16T15:23:49;25.50;79.50
7708;DHT22;3896;48.758;8.888;2022-10-16T15:26:16;25.50;80.10
7708;DHT22;3896;48.758;8.888;2022-10-16T15:28:41;25.40;80.00
7708;DHT22;3896;48.758;8.888;2022-10-16T15:31:07;25.40;80.60
7708;DHT22;3896;48.758;8.888;2022-10-16T15:33:33;25.30;79.70
7708;DHT22;3896;48.758;8.888;2022-10-16T15:36:00;25.30;80.00
7708;DHT22;3896;48.758;8.888;2022-10-16T15:38:27;25.20;80.30
7708;DHT22;3896;48.758;8.888;2022-10-16T15:40:53;25.20;80.70
7708;DHT22;3896;48.758;8.888;2022-10-16T15:43:19;25.10;81.20
7708;DHT22;3896;48.758;8.888;2022-10-16T15:45:58;25.00;81.90
7708;DHT22;3896;48.758;8.888;2022-10-16T15:48:24;24.90;82.70
7708;DHT22;3896;48.758;8.888;2022-10-16T15:50:50;24.90;83.20
7708;DHT22;3896;48.758;8.888;2022-10-16T15:53:15;24.80;83.70
7708;DHT22;3896;48.758;8.888;2022-10-16T15:55:41;24.70;84.20
7708;DHT22;3896;48.758;8.888;2022-10-16T15:58:07;24.70;84.80
7708;DHT22;3896;48.758;8.888;2022-10-16T16:00:32;24.60;85.00
7708;DHT22;3896;48.758;8.888;2022-10-16T16:02:59;24.50;84.90
7708;DHT22;3896;48.758;8.888;2022-10-16T16:05:24;24.40;84.90
7708;DHT22;3896;48.758;8.888;2022-10-16T16:07:51;24.30;85.30
7708;DHT22;3896;48.758;8.888;2022-10-16T16:10:17;24.20;85.70
7708;DHT22;3896;48.758;8.888;2022-10-16T16:12:43;24.20;85.80
7708;DHT22;3896;48.758;8.888;2022-10-16T16:15:09;24.00;85.80
7708;DHT22;3896;48.758;8.888;2022-10-16T16:17:35;24.00;85.90
7708;DHT22;3896;48.758;8.888;2022-10-16T16:20:02;23.80;85.80
7708;DHT22;3896;48.758;8.888;2022-10-16T16:22:28;23.70;85.80
7708;DHT22;3896;48.758;8.888;2022-10-16T16:24:54;23.70;86.20
7708;DHT22;3896;48.758;8.888;2022-10-16T16:27:20;23.50;86.20
7708;DHT22;3896;48.758;8.888;2022-10-16T16:29:46;23.40;86.20
7708;DHT22;3896;48.758;8.888;2022-10-16T16:32:12;23.30;86.20
7708;DHT22;3896;48.758;8.888;2022-10-16T16:34:38;23.20;86.20
7708;DHT22;3896;48.758;8.888;2022-10-16T16:37:04;23.10;86.20
7708;DHT22;3896;48.758;8.888;2022-10-16T16:39:29;23.00;86.20
7708;DHT22;3896;48.758;8.888;2022-10-16T16:41:56;22.80;86.40
7708;DHT22;3896;48.758;8.888;2022-10-16T16:44:23;22.70;86.80
7708;DHT22;3896;48.758;8.888;2022-10-16T16:46:49;22.60;87.10
7708;DHT22;3896;48.758;8.888;2022-10-16T16:49:15;22.50;87.30
7708;DHT22;3896;48.758;8.888;2022-10-16T16:51:41;22.40;87.70
7708;DHT22;3896;48.758;8.888;2022-10-16T16:54:07;22.30;87.90
7708;DHT22;3896;48.758;8.888;2022-10-16T16:56:34;22.20;88.10
7708;DHT22;3896;48.758;8.888;2022-10-16T16:59:00;22.10;88.20
7708;DHT22;3896;48.758;8.888;2022-10-16T17:01:27;22.00;88.40
7708;DHT22;3896;48.758;8.888;2022-10-16T17:03:55;21.90;88.50
7708;DHT22;3896;48.758;8.888;2022-10-16T17:06:22;21.80;88.70
7708;DHT22;3896;48.758;8.888;2022-10-16T17:08:49;21.70;88.70
7708;DHT22;3896;48.758;8.888;2022-10-16T17:11:26;21.60;88.80
7708;DHT22;3896;48.758;8.888;2022-10-16T17:13:53;21.50;88.80
7708;DHT22;3896;48.758;8.888;2022-10-16T17:16:21;21.40;88.90
7708;DHT22;3896;48.758;8.888;2022-10-16T17:18:47;21.30;89.10
7708;DHT22;3896;48.758;8.888;2022-10-16T17:21:12;21.10;88.90
7708;DHT22;3896;48.758;8.888;2022-10-16T17:23:38;21.00;88.70
7708;DHT22;3896;48.758;8.888;2022-10-16T17:26:12;20.90;88.70
7708;DHT22;3896;48.758;8.888;2022-10-16T17:28:38;20.80;88.70
7708;DHT22;3896;48.758;8.888;2022-10-16T17:31:16;20.70;88.70
7708;DHT22;3896;48.758;8.888;2022-10-16T17:33:42;20.50;88.60
7708;DHT22;3896;48.758;8.888;2022-10-16T17:36:09;20.40;88.70
7708;DHT22;3896;48.758;8.888;2022-10-16T17:38:36;20.40;88.70
7708;DHT22;3896;48.758;8.888;2022-10-16T17:41:20;20.20;88.70
7708;DHT22;3896;48.758;8.888;2022-10-16T17:43:47;20.10;88.70
7708;DHT22;3896;48.758;8.888;2022-10-16T17:46:14;20.00;89.30
7708;DHT22;3896;48.758;8.888;2022-10-16T17:48:42;19.90;89.70
7708;DHT22;3896;48.758;8.888;2022-10-16T17:51:10;19.80;90.00
7708;DHT22;3896;48.758;8.888;2022-10-16T17:53:36;19.70;90.30
7708;DHT22;3896;48.758;8.888;2022-10-16T17:56:04;19.60;90.50
7708;DHT22;3896;48.758;8.888;2022-10-16T17:58:30;19.50;90.80
7708;DHT22;3896;48.758;8.888;2022-10-16T18:00:56;19.40;90.80
7708;DHT22;3896;48.758;8.888;2022-10-16T18:03:21;19.30;91.00
7708;DHT22;3896;48.758;8.888;2022-10-16T18:05:47;19.20;91.10
7708;DHT22;3896;48.758;8.888;2022-10-16T18:08:12;19.20;91.30